Aérodrome :
LOGIN :

S'inscrire | Disclaimer

   EN    FR    IT 

 










Légende :    VFR   VFR Marginal   IFR   IFR Intensif   IFR Très Intensif
Visi : 
Plafond : 
>= 8 km
>= 3000ft
5 à 8 km
1000 à 3000 ft
1500m à 5 km
500 à 1000 ft
800 à 1500m
200 à 500 ft
< 800m
< 200 ft
Symboles :   Orages  Brouillard  Fortes neiges  Fortes précipitations  Vent > 20 kt
SIGMETs :   Divers  Orages  Givrage  Turbulence  Onde Orograph.  Cendres Volcan.






- Altitude de l'aérodrome : 640 ft
- Code IATA : AOC


EDAC - Altenburg-Nobitz

DERNIER METAR :
  • 270220Z AUTO 23009KT 9999 // BKN025/// BKN033/// OVC053/// 02/M00 Q1004

METARs EXPIRÉS :
  • 270150Z AUTO 24011KT 9999 // FEW012/// BKN022/// OVC058/// 02/M00 Q1004
  • 270120Z AUTO 24010KT 9999 // FEW021/// BKN026/// OVC041/// 02/00 Q1004
  • 270050Z AUTO 25010KT 9999 // SCT020/// OVC048/// 03/M00 Q1004
  • 270020Z AUTO 24009KT 9999 // FEW019/// BKN023/// OVC046/// 02/00 Q1003
  • 262350Z AUTO 24010KT 9999 // FEW022/// BKN051/// 02/00 Q1003

Prévision TAF périmée.



MET'MAP, la Météo Aéronautique d'un coup d'oeil ! - Copyright ORBIFLY Décembre 2007 - Disclaimer

ORBIFLY MET'MAP TEAM :

Programmation & Développement : Alexandra Zaïnal
Sur une idée originale de : Baudouin d'Aumeries
Assistance à la programmation : Marc-Olivier Méhu
Soutien technique & logistique : Manuel Goepfert

Contact : metmap@orbifly.com




SOURCES & CREDITS :

   NOAA